sensor_id;sensor_type;location;lat;lon;timestamp;P1;durP1;ratioP1;P2;durP2;ratioP2
5869;SDS011;2961;47.702;9.410;2023-04-25T00:02:00;7.60;;;3.10;;
5869;SDS011;2961;47.702;9.410;2023-04-25T00:04:28;4.43;;;3.23;;
5869;SDS011;2961;47.702;9.410;2023-04-25T00:06:56;3.17;;;2.97;;
5869;SDS011;2961;47.702;9.410;2023-04-25T00:09:23;5.23;;;3.20;;
5869;SDS011;2961;47.702;9.410;2023-04-25T00:11:50;4.67;;;3.30;;
5869;SDS011;2961;47.702;9.410;2023-04-25T00:14:17;4.17;;;3.00;;
5869;SDS011;2961;47.702;9.410;2023-04-25T00:16:43;7.23;;;3.60;;
5869;SDS011;2961;47.702;9.410;2023-04-25T00:19:10;7.40;;;3.27;;
5869;SDS011;2961;47.702;9.410;2023-04-25T00:21:38;8.57;;;3.20;;
5869;SDS011;2961;47.702;9.410;2023-04-25T00:24:07;2.93;;;2.73;;
5869;SDS011;2961;47.702;9.410;2023-04-25T00:26:33;10.23;;;3.70;;
5869;SDS011;2961;47.702;9.410;2023-04-25T00:29:01;10.53;;;2.90;;
5869;SDS011;2961;47.702;9.410;2023-04-25T00:31:28;5.23;;;3.00;;
5869;SDS011;2961;47.702;9.410;2023-04-25T00:33:55;6.27;;;3.23;;
5869;SDS011;2961;47.702;9.410;2023-04-25T00:36:21;6.97;;;3.70;;
5869;SDS011;2961;47.702;9.410;2023-04-25T00:38:48;3.13;;;2.60;;
5869;SDS011;2961;47.702;9.410;2023-04-25T00:41:16;6.00;;;3.10;;
5869;SDS011;2961;47.702;9.410;2023-04-25T00:43:44;6.50;;;2.60;;
5869;SDS011;2961;47.702;9.410;2023-04-25T00:46:13;2.67;;;2.40;;
5869;SDS011;2961;47.702;9.410;2023-04-25T00:48:39;2.90;;;2.67;;
5869;SDS011;2961;47.702;9.410;2023-04-25T00:51:06;7.80;;;2.70;;
5869;SDS011;2961;47.702;9.410;2023-04-25T00:53:33;6.30;;;3.00;;
5869;SDS011;2961;47.702;9.410;2023-04-25T00:56:00;4.70;;;3.27;;
5869;SDS011;2961;47.702;9.410;2023-04-25T00:58:28;7.37;;;3.50;;
5869;SDS011;2961;47.702;9.410;2023-04-25T01:00:55;8.23;;;3.80;;
5869;SDS011;2961;47.702;9.410;2023-04-25T01:03:23;12.07;;;3.30;;
5869;SDS011;2961;47.702;9.410;2023-04-25T01:05:53;7.90;;;4.50;;
5869;SDS011;2961;47.702;9.410;2023-04-25T01:08:21;8.70;;;2.70;;
5869;SDS011;2961;47.702;9.410;2023-04-25T01:10:50;5.80;;;3.00;;
5869;SDS011;2961;47.702;9.410;2023-04-25T01:13:17;6.93;;;3.37;;
5869;SDS011;2961;47.702;9.410;2023-04-25T01:15:46;4.83;;;2.77;;
5869;SDS011;2961;47.702;9.410;2023-04-25T01:18:13;4.60;;;3.13;;
5869;SDS011;2961;47.702;9.410;2023-04-25T01:20:41;3.30;;;2.70;;
5869;SDS011;2961;47.702;9.410;2023-04-25T01:23:09;5.03;;;2.70;;
5869;SDS011;2961;47.702;9.410;2023-04-25T01:25:36;5.40;;;2.70;;
5869;SDS011;2961;47.702;9.410;2023-04-25T01:28:03;4.30;;;2.50;;
5869;SDS011;2961;47.702;9.410;2023-04-25T01:30:30;4.30;;;2.40;;
5869;SDS011;2961;47.702;9.410;2023-04-25T01:32:57;4.23;;;2.30;;
5869;SDS011;2961;47.702;9.410;2023-04-25T01:35:26;3.53;;;2.73;;
5869;SDS011;2961;47.702;9.410;2023-04-25T01:37:53;3.37;;;2.67;;
5869;SDS011;2961;47.702;9.410;2023-04-25T01:40:21;5.00;;;3.00;;
5869;SDS011;2961;47.702;9.410;2023-04-25T01:42:50;2.80;;;2.70;;
5869;SDS011;2961;47.702;9.410;2023-04-25T01:45:17;5.40;;;2.70;;
5869;SDS011;2961;47.702;9.410;2023-04-25T01:47:44;3.03;;;2.70;;
5869;SDS011;2961;47.702;9.410;2023-04-25T01:50:14;3.60;;;2.30;;
5869;SDS011;2961;47.702;9.410;2023-04-25T01:52:42;5.20;;;3.00;;
5869;SDS011;2961;47.702;9.410;2023-04-25T01:55:09;7.43;;;2.10;;
5869;SDS011;2961;47.702;9.410;2023-04-25T01:57:38;3.60;;;2.17;;
5869;SDS011;2961;47.702;9.410;2023-04-25T02:00:06;4.23;;;2.13;;
5869;SDS011;2961;47.702;9.410;2023-04-25T02:02:34;3.13;;;2.20;;
5869;SDS011;2961;47.702;9.410;2023-04-25T02:05:01;3.77;;;2.13;;
5869;SDS011;2961;47.702;9.410;2023-04-25T02:07:28;3.07;;;2.30;;
5869;SDS011;2961;47.702;9.410;2023-04-25T02:09:55;5.37;;;1.93;;
5869;SDS011;2961;47.702;9.410;2023-04-25T02:12:22;3.80;;;2.23;;
5869;SDS011;2961;47.702;9.410;2023-04-25T02:14:50;3.17;;;2.53;;
5869;SDS011;2961;47.702;9.410;2023-04-25T02:17:17;2.77;;;2.10;;
5869;SDS011;2961;47.702;9.410;2023-04-25T02:19:44;2.83;;;2.63;;
5869;SDS011;2961;47.702;9.410;2023-04-25T02:22:11;2.30;;;2.03;;
5869;SDS011;2961;47.702;9.410;2023-04-25T02:24:37;3.93;;;2.40;;
5869;SDS011;2961;47.702;9.410;2023-04-25T02:27:04;2.83;;;2.70;;
5869;SDS011;2961;47.702;9.410;2023-04-25T02:29:32;5.47;;;2.63;;
5869;SDS011;2961;47.702;9.410;2023-04-25T02:32:01;3.33;;;2.50;;
5869;SDS011;2961;47.702;9.410;2023-04-25T02:34:28;4.83;;;2.47;;
5869;SDS011;2961;47.702;9.410;2023-04-25T02:36:54;6.83;;;2.63;;
5869;SDS011;2961;47.702;9.410;2023-04-25T02:39:21;3.33;;;1.97;;
5869;SDS011;2961;47.702;9.410;2023-04-25T02:41:50;4.00;;;2.37;;
5869;SDS011;2961;47.702;9.410;2023-04-25T02:44:16;5.40;;;2.73;;
5869;SDS011;2961;47.702;9.410;2023-04-25T02:46:43;2.63;;;2.43;;
5869;SDS011;2961;47.702;9.410;2023-04-25T02:49:11;5.90;;;2.43;;
5869;SDS011;2961;47.702;9.410;2023-04-25T02:51:38;4.67;;;2.97;;
5869;SDS011;2961;47.702;9.410;2023-04-25T02:54:05;2.63;;;2.43;;
5869;SDS011;2961;47.702;9.410;2023-04-25T02:56:32;3.03;;;2.73;;
5869;SDS011;2961;47.702;9.410;2023-04-25T02:58:59;3.17;;;2.97;;
5869;SDS011;2961;47.702;9.410;2023-04-25T03:01:25;2.23;;;2.10;;
5869;SDS011;2961;47.702;9.410;2023-04-25T03:03:52;2.07;;;1.97;;
5869;SDS011;2961;47.702;9.410;2023-04-25T03:06:20;3.77;;;3.00;;
5869;SDS011;2961;47.702;9.410;2023-04-25T03:08:47;2.23;;;2.13;;
5869;SDS011;2961;47.702;9.410;2023-04-25T03:11:14;3.17;;;2.30;;
5869;SDS011;2961;47.702;9.410;2023-04-25T03:13:40;3.33;;;2.83;;
5869;SDS011;2961;47.702;9.410;2023-04-25T03:16:07;4.83;;;2.70;;
5869;SDS011;2961;47.702;9.410;2023-04-25T03:18:34;3.70;;;3.10;;
5869;SDS011;2961;47.702;9.410;2023-04-25T03:21:01;4.30;;;2.77;;
5869;SDS011;2961;47.702;9.410;2023-04-25T03:23:30;3.60;;;2.67;;
5869;SDS011;2961;47.702;9.410;2023-04-25T03:25:56;2.47;;;2.37;;
5869;SDS011;2961;47.702;9.410;2023-04-25T03:28:23;4.53;;;2.90;;
5869;SDS011;2961;47.702;9.410;2023-04-25T03:30:50;5.17;;;3.00;;
5869;SDS011;2961;47.702;9.410;2023-04-25T03:33:17;3.93;;;3.00;;
5869;SDS011;2961;47.702;9.410;2023-04-25T03:35:43;18.63;;;2.97;;
5869;SDS011;2961;47.702;9.410;2023-04-25T03:38:10;2.70;;;2.47;;
5869;SDS011;2961;47.702;9.410;2023-04-25T03:40:38;3.20;;;2.90;;
5869;SDS011;2961;47.702;9.410;2023-04-25T03:43:05;8.50;;;2.70;;
5869;SDS011;2961;47.702;9.410;2023-04-25T03:45:32;11.07;;;3.80;;
5869;SDS011;2961;47.702;9.410;2023-04-25T03:47:59;6.23;;;2.40;;
5869;SDS011;2961;47.702;9.410;2023-04-25T03:50:25;3.60;;;2.70;;
5869;SDS011;2961;47.702;9.410;2023-04-25T03:52:52;3.00;;;2.60;;
5869;SDS011;2961;47.702;9.410;2023-04-25T03:55:19;3.10;;;2.77;;
5869;SDS011;2961;47.702;9.410;2023-04-25T03:57:47;6.47;;;2.30;;
5869;SDS011;2961;47.702;9.410;2023-04-25T04:00:14;3.70;;;2.03;;
5869;SDS011;2961;47.702;9.410;2023-04-25T04:02:41;4.23;;;2.97;;
5869;SDS011;2961;47.702;9.410;2023-04-25T04:05:08;3.00;;;2.80;;
5869;SDS011;2961;47.702;9.410;2023-04-25T04:07:35;6.63;;;3.27;;
5869;SDS011;2961;47.702;9.410;2023-04-25T04:10:05;4.07;;;3.30;;
5869;SDS011;2961;47.702;9.410;2023-04-25T04:12:32;3.03;;;2.83;;
5869;SDS011;2961;47.702;9.410;2023-04-25T04:15:00;3.00;;;2.87;;
5869;SDS011;2961;47.702;9.410;2023-04-25T04:17:28;6.20;;;3.23;;
5869;SDS011;2961;47.702;9.410;2023-04-25T04:19:55;4.43;;;3.07;;
5869;SDS011;2961;47.702;9.410;2023-04-25T04:22:22;3.27;;;3.07;;
5869;SDS011;2961;47.702;9.410;2023-04-25T04:24:49;3.80;;;3.10;;
5869;SDS011;2961;47.702;9.410;2023-04-25T04:27:16;3.27;;;3.03;;
5869;SDS011;2961;47.702;9.410;2023-04-25T04:29:44;6.20;;;3.63;;
5869;SDS011;2961;47.702;9.410;2023-04-25T04:32:12;6.90;;;3.90;;
5869;SDS011;2961;47.702;9.410;2023-04-25T04:34:40;3.27;;;2.80;;
5869;SDS011;2961;47.702;9.410;2023-04-25T04:37:07;7.60;;;3.93;;
5869;SDS011;2961;47.702;9.410;2023-04-25T04:39:34;4.57;;;3.20;;
5869;SDS011;2961;47.702;9.410;2023-04-25T04:42:01;3.53;;;3.23;;
5869;SDS011;2961;47.702;9.410;2023-04-25T04:44:30;3.80;;;3.40;;
5869;SDS011;2961;47.702;9.410;2023-04-25T04:46:57;6.37;;;4.13;;
5869;SDS011;2961;47.702;9.410;2023-04-25T04:49:25;5.67;;;4.10;;
5869;SDS011;2961;47.702;9.410;2023-04-25T04:51:53;7.07;;;4.50;;
5869;SDS011;2961;47.702;9.410;2023-04-25T04:54:20;4.50;;;4.10;;
5869;SDS011;2961;47.702;9.410;2023-04-25T04:56:47;7.87;;;4.20;;
5869;SDS011;2961;47.702;9.410;2023-04-25T04:59:15;4.73;;;4.17;;
5869;SDS011;2961;47.702;9.410;2023-04-25T05:01:41;5.53;;;4.00;;
5869;SDS011;2961;47.702;9.410;2023-04-25T05:04:08;4.40;;;3.67;;
5869;SDS011;2961;47.702;9.410;2023-04-25T05:06:36;5.90;;;3.93;;
5869;SDS011;2961;47.702;9.410;2023-04-25T05:09:03;13.60;;;4.80;;
5869;SDS011;2961;47.702;9.410;2023-04-25T05:11:30;5.67;;;3.43;;
5869;SDS011;2961;47.702;9.410;2023-04-25T05:13:56;5.60;;;3.53;;
5869;SDS011;2961;47.702;9.410;2023-04-25T05:16:23;4.17;;;3.87;;
5869;SDS011;2961;47.702;9.410;2023-04-25T05:18:50;4.53;;;3.37;;
5869;SDS011;2961;47.702;9.410;2023-04-25T05:21:17;14.70;;;4.07;;
5869;SDS011;2961;47.702;9.410;2023-04-25T05:23:45;7.22;;;4.60;;
5869;SDS011;2961;47.702;9.410;2023-04-25T05:26:12;6.47;;;4.03;;
5869;SDS011;2961;47.702;9.410;2023-04-25T05:28:39;7.13;;;3.43;;
5869;SDS011;2961;47.702;9.410;2023-04-25T05:31:06;4.70;;;3.60;;
5869;SDS011;2961;47.702;9.410;2023-04-25T05:33:35;6.63;;;3.10;;
5869;SDS011;2961;47.702;9.410;2023-04-25T05:36:01;4.80;;;3.40;;
5869;SDS011;2961;47.702;9.410;2023-04-25T05:38:28;3.60;;;3.30;;
5869;SDS011;2961;47.702;9.410;2023-04-25T05:40:56;5.50;;;2.83;;
5869;SDS011;2961;47.702;9.410;2023-04-25T05:43:23;3.10;;;2.80;;
5869;SDS011;2961;47.702;9.410;2023-04-25T05:45:50;6.20;;;2.80;;
5869;SDS011;2961;47.702;9.410;2023-04-25T05:48:17;7.47;;;2.77;;
5869;SDS011;2961;47.702;9.410;2023-04-25T05:50:43;5.90;;;2.83;;
5869;SDS011;2961;47.702;9.410;2023-04-25T05:53:10;3.93;;;2.80;;
5869;SDS011;2961;47.702;9.410;2023-04-25T05:55:37;4.03;;;2.90;;
5869;SDS011;2961;47.702;9.410;2023-04-25T05:58:06;2.57;;;2.40;;
5869;SDS011;2961;47.702;9.410;2023-04-25T06:00:32;3.10;;;2.90;;
5869;SDS011;2961;47.702;9.410;2023-04-25T06:02:59;7.50;;;2.77;;
5869;SDS011;2961;47.702;9.410;2023-04-25T06:05:27;2.63;;;2.33;;
5869;SDS011;2961;47.702;9.410;2023-04-25T06:07:54;3.30;;;2.50;;
5869;SDS011;2961;47.702;9.410;2023-04-25T06:10:34;2.50;;;2.27;;
5869;SDS011;2961;47.702;9.410;2023-04-25T06:13:02;3.93;;;2.37;;
5869;SDS011;2961;47.702;9.410;2023-04-25T06:15:30;8.53;;;2.90;;
5869;SDS011;2961;47.702;9.410;2023-04-25T06:17:57;4.43;;;2.37;;
5869;SDS011;2961;47.702;9.410;2023-04-25T06:20:24;2.90;;;2.47;;
5869;SDS011;2961;47.702;9.410;2023-04-25T06:22:51;4.30;;;3.90;;
5869;SDS011;2961;47.702;9.410;2023-04-25T06:25:18;3.28;;;2.97;;
5869;SDS011;2961;47.702;9.410;2023-04-25T06:27:45;6.10;;;2.70;;
5869;SDS011;2961;47.702;9.410;2023-04-25T06:30:12;3.50;;;2.80;;
5869;SDS011;2961;47.702;9.410;2023-04-25T06:32:40;3.17;;;2.87;;
5869;SDS011;2961;47.702;9.410;2023-04-25T06:35:07;4.80;;;2.10;;
5869;SDS011;2961;47.702;9.410;2023-04-25T06:37:35;4.23;;;2.63;;
5869;SDS011;2961;47.702;9.410;2023-04-25T06:40:02;3.80;;;2.70;;
5869;SDS011;2961;47.702;9.410;2023-04-25T06:42:29;1.93;;;1.80;;
5869;SDS011;2961;47.702;9.410;2023-04-25T06:44:56;4.90;;;2.27;;
5869;SDS011;2961;47.702;9.410;2023-04-25T06:47:22;2.20;;;1.97;;
5869;SDS011;2961;47.702;9.410;2023-04-25T06:49:51;3.70;;;2.73;;
5869;SDS011;2961;47.702;9.410;2023-04-25T06:52:17;4.37;;;2.27;;
5869;SDS011;2961;47.702;9.410;2023-04-25T06:54:44;5.67;;;2.27;;
5869;SDS011;2961;47.702;9.410;2023-04-25T06:57:11;2.43;;;2.23;;
5869;SDS011;2961;47.702;9.410;2023-04-25T06:59:38;5.53;;;3.20;;
5869;SDS011;2961;47.702;9.410;2023-04-25T07:02:05;4.53;;;3.20;;
5869;SDS011;2961;47.702;9.410;2023-04-25T07:04:32;3.90;;;2.60;;
5869;SDS011;2961;47.702;9.410;2023-04-25T07:07:00;7.27;;;2.30;;
5869;SDS011;2961;47.702;9.410;2023-04-25T07:09:27;3.43;;;2.00;;
5869;SDS011;2961;47.702;9.410;2023-04-25T07:11:54;3.30;;;2.30;;
5869;SDS011;2961;47.702;9.410;2023-04-25T07:14:21;2.70;;;2.13;;
5869;SDS011;2961;47.702;9.410;2023-04-25T07:16:48;7.68;;;3.17;;
5869;SDS011;2961;47.702;9.410;2023-04-25T07:19:15;4.27;;;2.57;;
5869;SDS011;2961;47.702;9.410;2023-04-25T07:21:41;4.10;;;2.60;;
5869;SDS011;2961;47.702;9.410;2023-04-25T07:24:09;5.10;;;2.87;;
5869;SDS011;2961;47.702;9.410;2023-04-25T07:26:36;3.60;;;2.37;;
5869;SDS011;2961;47.702;9.410;2023-04-25T07:29:03;3.90;;;2.77;;
5869;SDS011;2961;47.702;9.410;2023-04-25T07:31:30;7.67;;;2.43;;
5869;SDS011;2961;47.702;9.410;2023-04-25T07:33:57;5.13;;;2.80;;
5869;SDS011;2961;47.702;9.410;2023-04-25T07:36:23;3.50;;;2.40;;
5869;SDS011;2961;47.702;9.410;2023-04-25T07:38:51;5.07;;;2.97;;
5869;SDS011;2961;47.702;9.410;2023-04-25T07:41:19;3.50;;;2.20;;
5869;SDS011;2961;47.702;9.410;2023-04-25T07:43:46;4.37;;;2.13;;
5869;SDS011;2961;47.702;9.410;2023-04-25T07:46:13;5.47;;;3.27;;
5869;SDS011;2961;47.702;9.410;2023-04-25T07:48:40;9.60;;;3.37;;
5869;SDS011;2961;47.702;9.410;2023-04-25T07:51:06;3.63;;;3.00;;
5869;SDS011;2961;47.702;9.410;2023-04-25T07:53:33;7.50;;;3.83;;
5869;SDS011;2961;47.702;9.410;2023-04-25T07:56:02;7.60;;;4.70;;
5869;SDS011;2961;47.702;9.410;2023-04-25T07:58:30;4.73;;;3.57;;
5869;SDS011;2961;47.702;9.410;2023-04-25T08:00:57;6.57;;;3.33;;
5869;SDS011;2961;47.702;9.410;2023-04-25T08:03:24;9.13;;;4.10;;
5869;SDS011;2961;47.702;9.410;2023-04-25T08:05:51;6.60;;;2.97;;
5869;SDS011;2961;47.702;9.410;2023-04-25T08:08:17;5.13;;;2.50;;
5869;SDS011;2961;47.702;9.410;2023-04-25T08:10:44;3.40;;;2.50;;
5869;SDS011;2961;47.702;9.410;2023-04-25T08:13:13;4.00;;;2.73;;
5869;SDS011;2961;47.702;9.410;2023-04-25T08:15:41;10.40;;;3.50;;
5869;SDS011;2961;47.702;9.410;2023-04-25T08:18:08;4.63;;;3.00;;
5869;SDS011;2961;47.702;9.410;2023-04-25T08:20:34;5.10;;;3.10;;
5869;SDS011;2961;47.702;9.410;2023-04-25T08:23:01;3.57;;;3.30;;
5869;SDS011;2961;47.702;9.410;2023-04-25T08:25:28;6.73;;;3.57;;
5869;SDS011;2961;47.702;9.410;2023-04-25T08:27:55;10.13;;;4.73;;
5869;SDS011;2961;47.702;9.410;2023-04-25T08:30:22;8.53;;;3.80;;
5869;SDS011;2961;47.702;9.410;2023-04-25T08:32:50;4.77;;;3.13;;
5869;SDS011;2961;47.702;9.410;2023-04-25T08:35:17;10.97;;;4.10;;
5869;SDS011;2961;47.702;9.410;2023-04-25T08:40:51;3.30;;;2.83;;
5869;SDS011;2961;47.702;9.410;2023-04-25T08:43:18;4.03;;;3.60;;
5869;SDS011;2961;47.702;9.410;2023-04-25T08:45:46;4.00;;;3.17;;
5869;SDS011;2961;47.702;9.410;2023-04-25T08:48:15;5.07;;;3.87;;
5869;SDS011;2961;47.702;9.410;2023-04-25T08:50:45;2.90;;;2.27;;
5869;SDS011;2961;47.702;9.410;2023-04-25T08:53:16;4.83;;;3.17;;
5869;SDS011;2961;47.702;9.410;2023-04-25T08:55:46;2.47;;;2.33;;
5869;SDS011;2961;47.702;9.410;2023-04-25T08:58:14;3.43;;;2.70;;
5869;SDS011;2961;47.702;9.410;2023-04-25T09:00:41;3.10;;;2.77;;
5869;SDS011;2961;47.702;9.410;2023-04-25T09:03:08;4.97;;;2.87;;
5869;SDS011;2961;47.702;9.410;2023-04-25T09:05:36;3.50;;;3.20;;
5869;SDS011;2961;47.702;9.410;2023-04-25T09:08:03;3.10;;;2.90;;
5869;SDS011;2961;47.702;9.410;2023-04-25T09:10:44;7.60;;;3.37;;
5869;SDS011;2961;47.702;9.410;2023-04-25T09:13:11;3.23;;;2.93;;
5869;SDS011;2961;47.702;9.410;2023-04-25T09:15:49;4.20;;;3.80;;
5869;SDS011;2961;47.702;9.410;2023-04-25T09:18:23;5.60;;;3.33;;
5869;SDS011;2961;47.702;9.410;2023-04-25T09:20:52;4.53;;;3.67;;
5869;SDS011;2961;47.702;9.410;2023-04-25T09:23:38;3.43;;;2.37;;
5869;SDS011;2961;47.702;9.410;2023-04-25T09:26:06;2.87;;;2.67;;
5869;SDS011;2961;47.702;9.410;2023-04-25T09:28:33;3.30;;;2.63;;
5869;SDS011;2961;47.702;9.410;2023-04-25T09:31:01;5.27;;;3.20;;
5869;SDS011;2961;47.702;9.410;2023-04-25T09:33:28;5.33;;;2.90;;
5869;SDS011;2961;47.702;9.410;2023-04-25T09:38:31;4.33;;;3.27;;
5869;SDS011;2961;47.702;9.410;2023-04-25T09:41:05;4.97;;;3.13;;
5869;SDS011;2961;47.702;9.410;2023-04-25T09:43:32;3.83;;;3.43;;
5869;SDS011;2961;47.702;9.410;2023-04-25T09:45:59;3.20;;;3.00;;
5869;SDS011;2961;47.702;9.410;2023-04-25T09:48:26;3.23;;;2.80;;
5869;SDS011;2961;47.702;9.410;2023-04-25T09:51:04;7.90;;;3.13;;
5869;SDS011;2961;47.702;9.410;2023-04-25T09:53:33;6.13;;;3.40;;
5869;SDS011;2961;47.702;9.410;2023-04-25T09:56:00;3.23;;;2.90;;
5869;SDS011;2961;47.702;9.410;2023-04-25T09:58:30;4.23;;;2.93;;
5869;SDS011;2961;47.702;9.410;2023-04-25T10:00:58;2.83;;;2.63;;
5869;SDS011;2961;47.702;9.410;2023-04-25T10:03:27;2.50;;;2.30;;
5869;SDS011;2961;47.702;9.410;2023-04-25T10:05:56;2.53;;;2.43;;
5869;SDS011;2961;47.702;9.410;2023-04-25T10:08:26;2.40;;;1.90;;
5869;SDS011;2961;47.702;9.410;2023-04-25T10:10:58;1.67;;;1.57;;
5869;SDS011;2961;47.702;9.410;2023-04-25T10:13:26;1.37;;;1.37;;
5869;SDS011;2961;47.702;9.410;2023-04-25T10:15:54;1.73;;;1.60;;
5869;SDS011;2961;47.702;9.410;2023-04-25T10:18:22;1.90;;;1.80;;
5869;SDS011;2961;47.702;9.410;2023-04-25T10:20:50;1.73;;;1.63;;
5869;SDS011;2961;47.702;9.410;2023-04-25T10:23:17;2.10;;;1.87;;
5869;SDS011;2961;47.702;9.410;2023-04-25T10:25:46;2.40;;;1.77;;
5869;SDS011;2961;47.702;9.410;2023-04-25T10:28:13;1.60;;;1.60;;
5869;SDS011;2961;47.702;9.410;2023-04-25T10:33:29;2.83;;;2.03;;
5869;SDS011;2961;47.702;9.410;2023-04-25T10:36:02;1.80;;;1.70;;
5869;SDS011;2961;47.702;9.410;2023-04-25T10:38:35;3.87;;;1.80;;
5869;SDS011;2961;47.702;9.410;2023-04-25T10:41:04;1.97;;;1.87;;
5869;SDS011;2961;47.702;9.410;2023-04-25T10:43:34;2.27;;;2.07;;
5869;SDS011;2961;47.702;9.410;2023-04-25T10:46:02;2.00;;;2.00;;
5869;SDS011;2961;47.702;9.410;2023-04-25T10:48:38;2.10;;;2.00;;
5869;SDS011;2961;47.702;9.410;2023-04-25T10:51:12;1.83;;;1.83;;
5869;SDS011;2961;47.702;9.410;2023-04-25T10:53:43;5.10;;;3.30;;
5869;SDS011;2961;47.702;9.410;2023-04-25T10:56:12;2.90;;;2.13;;
5869;SDS011;2961;47.702;9.410;2023-04-25T10:58:43;2.47;;;2.30;;
5869;SDS011;2961;47.702;9.410;2023-04-25T11:01:11;1.90;;;1.80;;
5869;SDS011;2961;47.702;9.410;2023-04-25T11:03:40;2.10;;;1.90;;
5869;SDS011;2961;47.702;9.410;2023-04-25T11:06:09;2.33;;;2.10;;
5869;SDS011;2961;47.702;9.410;2023-04-25T11:08:47;1.90;;;1.53;;
5869;SDS011;2961;47.702;9.410;2023-04-25T11:11:17;1.97;;;1.87;;
5869;SDS011;2961;47.702;9.410;2023-04-25T11:13:47;2.80;;;1.80;;
5869;SDS011;2961;47.702;9.410;2023-04-25T11:16:14;1.73;;;1.63;;
5869;SDS011;2961;47.702;9.410;2023-04-25T11:18:41;3.13;;;1.40;;
5869;SDS011;2961;47.702;9.410;2023-04-25T11:21:08;5.47;;;1.90;;
5869;SDS011;2961;47.702;9.410;2023-04-25T11:23:35;2.37;;;2.23;;
5869;SDS011;2961;47.702;9.410;2023-04-25T11:26:02;2.40;;;1.53;;
5869;SDS011;2961;47.702;9.410;2023-04-25T11:28:31;1.60;;;1.50;;
5869;SDS011;2961;47.702;9.410;2023-04-25T11:30:57;1.50;;;1.10;;
5869;SDS011;2961;47.702;9.410;2023-04-25T11:33:24;1.17;;;1.17;;
5869;SDS011;2961;47.702;9.410;2023-04-25T11:35:52;1.30;;;0.93;;
5869;SDS011;2961;47.702;9.410;2023-04-25T11:38:21;0.90;;;0.90;;
5869;SDS011;2961;47.702;9.410;2023-04-25T11:40:51;1.10;;;1.10;;
5869;SDS011;2961;47.702;9.410;2023-04-25T11:43:20;2.30;;;2.03;;
5869;SDS011;2961;47.702;9.410;2023-04-25T11:45:49;37.60;;;26.33;;
5869;SDS011;2961;47.702;9.410;2023-04-25T11:48:17;15.93;;;12.13;;
5869;SDS011;2961;47.702;9.410;2023-04-25T11:50:45;16.37;;;12.33;;
5869;SDS011;2961;47.702;9.410;2023-04-25T11:53:12;12.97;;;9.97;;
5869;SDS011;2961;47.702;9.410;2023-04-25T11:55:39;9.53;;;7.40;;
5869;SDS011;2961;47.702;9.410;2023-04-25T11:58:06;8.40;;;7.20;;
5869;SDS011;2961;47.702;9.410;2023-04-25T12:00:33;7.57;;;6.80;;
5869;SDS011;2961;47.702;9.410;2023-04-25T12:03:02;4.13;;;3.00;;
5869;SDS011;2961;47.702;9.410;2023-04-25T12:05:30;5.77;;;5.20;;
5869;SDS011;2961;47.702;9.410;2023-04-25T12:07:58;5.77;;;4.43;;
5869;SDS011;2961;47.702;9.410;2023-04-25T12:10:36;7.17;;;5.40;;
5869;SDS011;2961;47.702;9.410;2023-04-25T12:13:17;6.33;;;5.60;;
5869;SDS011;2961;47.702;9.410;2023-04-25T12:15:45;4.60;;;4.03;;
5869;SDS011;2961;47.702;9.410;2023-04-25T12:18:13;5.43;;;4.20;;
5869;SDS011;2961;47.702;9.410;2023-04-25T12:20:41;3.63;;;2.73;;
5869;SDS011;2961;47.702;9.410;2023-04-25T12:23:08;3.50;;;3.20;;
5869;SDS011;2961;47.702;9.410;2023-04-25T12:25:55;5.50;;;3.97;;
5869;SDS011;2961;47.702;9.410;2023-04-25T12:28:23;3.67;;;3.37;;
5869;SDS011;2961;47.702;9.410;2023-04-25T12:30:53;3.27;;;2.90;;
5869;SDS011;2961;47.702;9.410;2023-04-25T12:33:25;2.07;;;1.97;;
5869;SDS011;2961;47.702;9.410;2023-04-25T12:35:53;8.30;;;6.03;;
5869;SDS011;2961;47.702;9.410;2023-04-25T12:38:20;2.47;;;2.33;;
5869;SDS011;2961;47.702;9.410;2023-04-25T12:40:47;1.43;;;1.33;;
5869;SDS011;2961;47.702;9.410;2023-04-25T12:43:14;2.07;;;1.97;;
5869;SDS011;2961;47.702;9.410;2023-04-25T12:45:41;1.20;;;1.20;;
5869;SDS011;2961;47.702;9.410;2023-04-25T12:48:08;2.10;;;1.90;;
5869;SDS011;2961;47.702;9.410;2023-04-25T12:50:36;2.67;;;2.47;;
5869;SDS011;2961;47.702;9.410;2023-04-25T12:53:03;0.30;;;0.30;;
5869;SDS011;2961;47.702;9.410;2023-04-25T12:55:29;0.43;;;0.43;;
5869;SDS011;2961;47.702;9.410;2023-04-25T12:57:56;1.70;;;0.90;;
5869;SDS011;2961;47.702;9.410;2023-04-25T13:00:23;2.77;;;2.57;;
5869;SDS011;2961;47.702;9.410;2023-04-25T13:02:51;3.57;;;3.37;;
5869;SDS011;2961;47.702;9.410;2023-04-25T13:05:18;4.20;;;2.70;;
5869;SDS011;2961;47.702;9.410;2023-04-25T13:07:46;0.50;;;0.50;;
5869;SDS011;2961;47.702;9.410;2023-04-25T13:10:13;4.73;;;1.77;;
5869;SDS011;2961;47.702;9.410;2023-04-25T13:12:40;1.33;;;1.33;;
5869;SDS011;2961;47.702;9.410;2023-04-25T13:15:07;2.17;;;2.07;;
5869;SDS011;2961;47.702;9.410;2023-04-25T13:17:36;2.20;;;2.10;;
5869;SDS011;2961;47.702;9.410;2023-04-25T13:20:03;1.63;;;1.53;;
5869;SDS011;2961;47.702;9.410;2023-04-25T13:22:33;0.87;;;0.87;;
5869;SDS011;2961;47.702;9.410;2023-04-25T13:25:03;2.30;;;1.67;;
5869;SDS011;2961;47.702;9.410;2023-04-25T13:27:31;0.80;;;0.80;;
5869;SDS011;2961;47.702;9.410;2023-04-25T13:29:59;1.43;;;1.33;;
5869;SDS011;2961;47.702;9.410;2023-04-25T13:32:26;1.00;;;1.00;;
5869;SDS011;2961;47.702;9.410;2023-04-25T13:34:53;5.40;;;0.83;;
5869;SDS011;2961;47.702;9.410;2023-04-25T13:37:20;2.00;;;0.70;;
5869;SDS011;2961;47.702;9.410;2023-04-25T13:39:49;1.13;;;0.50;;
5869;SDS011;2961;47.702;9.410;2023-04-25T13:42:17;1.00;;;1.00;;
5869;SDS011;2961;47.702;9.410;2023-04-25T13:44:44;2.10;;;1.43;;
5869;SDS011;2961;47.702;9.410;2023-04-25T13:47:11;0.73;;;0.67;;
5869;SDS011;2961;47.702;9.410;2023-04-25T13:49:38;1.27;;;0.77;;
5869;SDS011;2961;47.702;9.410;2023-04-25T13:52:04;0.40;;;0.40;;
5869;SDS011;2961;47.702;9.410;2023-04-25T13:54:31;1.10;;;1.10;;
5869;SDS011;2961;47.702;9.410;2023-04-25T13:56:58;1.33;;;0.67;;
5869;SDS011;2961;47.702;9.410;2023-04-25T13:59:26;0.57;;;0.57;;
5869;SDS011;2961;47.702;9.410;2023-04-25T14:01:53;0.53;;;0.53;;
5869;SDS011;2961;47.702;9.410;2023-04-25T14:04:20;0.67;;;0.67;;
5869;SDS011;2961;47.702;9.410;2023-04-25T14:06:47;0.80;;;0.80;;
5869;SDS011;2961;47.702;9.410;2023-04-25T14:09:14;0.77;;;0.77;;
5869;SDS011;2961;47.702;9.410;2023-04-25T14:11:40;1.70;;;0.80;;
5869;SDS011;2961;47.702;9.410;2023-04-25T14:14:07;2.93;;;0.97;;
5869;SDS011;2961;47.702;9.410;2023-04-25T14:16:35;1.73;;;0.67;;
5869;SDS011;2961;47.702;9.410;2023-04-25T14:19:02;2.00;;;0.47;;
5869;SDS011;2961;47.702;9.410;2023-04-25T14:21:29;0.60;;;0.60;;
5869;SDS011;2961;47.702;9.410;2023-04-25T14:23:57;0.77;;;0.77;;
5869;SDS011;2961;47.702;9.410;2023-04-25T14:26:24;2.37;;;0.67;;
5869;SDS011;2961;47.702;9.410;2023-04-25T14:28:51;0.60;;;0.60;;
5869;SDS011;2961;47.702;9.410;2023-04-25T14:31:18;0.93;;;0.57;;
5869;SDS011;2961;47.702;9.410;2023-04-25T14:33:47;1.20;;;1.10;;
5869;SDS011;2961;47.702;9.410;2023-04-25T14:36:13;0.70;;;0.67;;
5869;SDS011;2961;47.702;9.410;2023-04-25T14:38:40;0.77;;;0.77;;
5869;SDS011;2961;47.702;9.410;2023-04-25T14:41:07;1.07;;;0.77;;
5869;SDS011;2961;47.702;9.410;2023-04-25T14:43:35;1.03;;;0.60;;
5869;SDS011;2961;47.702;9.410;2023-04-25T14:46:02;0.70;;;0.70;;
5869;SDS011;2961;47.702;9.410;2023-04-25T14:48:29;4.00;;;0.70;;
5869;SDS011;2961;47.702;9.410;2023-04-25T14:50:57;2.00;;;0.60;;
5869;SDS011;2961;47.702;9.410;2023-04-25T14:53:24;0.70;;;0.70;;
5869;SDS011;2961;47.702;9.410;2023-04-25T14:55:51;1.37;;;0.83;;
5869;SDS011;2961;47.702;9.410;2023-04-25T14:58:18;2.00;;;1.27;;
5869;SDS011;2961;47.702;9.410;2023-04-25T15:00:46;3.13;;;1.37;;
5869;SDS011;2961;47.702;9.410;2023-04-25T15:03:13;1.93;;;1.83;;
5869;SDS011;2961;47.702;9.410;2023-04-25T15:05:41;2.90;;;1.53;;
5869;SDS011;2961;47.702;9.410;2023-04-25T15:08:09;3.03;;;1.60;;
5869;SDS011;2961;47.702;9.410;2023-04-25T15:10:36;3.63;;;1.23;;
5869;SDS011;2961;47.702;9.410;2023-04-25T15:13:03;1.50;;;1.40;;
5869;SDS011;2961;47.702;9.410;2023-04-25T15:15:30;1.27;;;1.10;;
5869;SDS011;2961;47.702;9.410;2023-04-25T15:17:57;2.17;;;1.40;;
5869;SDS011;2961;47.702;9.410;2023-04-25T15:20:25;12.00;;;1.70;;
5869;SDS011;2961;47.702;9.410;2023-04-25T15:22:52;2.93;;;1.90;;
5869;SDS011;2961;47.702;9.410;2023-04-25T15:25:20;5.80;;;5.30;;
5869;SDS011;2961;47.702;9.410;2023-04-25T15:27:47;3.90;;;3.70;;